Funds performance table by strategy

help icon
fund name 1 mth 3 mth 12 mth ytd Inceptionsort icon Net assets Return Date
TongYang China Mainland Fdr Eq F Hdgd 19% 31% 34% 34% 10% 4295M 2014-12-31
FK Korea Feeder Equity I 1% 1% 0% 4% 10% 94M 2015-02-28
Franklin GCC Bond I Acc $ 0% 0% 7% 1% 10% 21M 2015-02-28
Janus Selection Twenty I JPY 9% 4% 32% 4% 10% 4295M 2015-02-28
Swisscanto (LU) BI Coco H EUR P 0% 3% 0% 6% 10% 370M 2014-06-30
Dynamic American Value Series I 5% 11% 21% 10% 10% 632M 2015-02-28
Sofaer Capital Asian Hedge B 0% -3% -11% -8% 10% - 2012-07-31
Murray Income Trust Ord 1% 4% 5% 5% 10% 426M 2015-02-28
CFS FC W Pen-FirstChoice W Balanced 3% 1% 18% 10% 10% 20M 2013-07-31
ICICI Pru Fusion Ser III Instl Div 0% 4% 7% -5% 10% 4295M 2011-04-30
RidgeWorth Mid-Cap Value Equity I 4% 1% 10% 1% 10% - 2015-02-28
NVIT Multi-Manager Mid Cap Value Y 1% 3% 23% 3% 10% - 2014-03-31
Nedgroup Inv XS Guarded FoF A 1% 3% 9% 2% 10% 1600M 2015-02-28
Amundi Fds Eq Latin America IU-C 4% -12% -9% -3% 10% 586M 2015-02-28
Cap Int Global High Inc Opp Ch-CHF -5% -8% -1% -3% 10% 928M 2011-09-30
KBC Life Invest Security Jumpstart 900 B 2% 1% 8% 2% 10% 0M 2015-02-28
SMMI Defensive FoF B9 0% 1% 8% 2% 10% 332M 2015-02-28
Growth Management Ltd 0% -5% -6% -5% 10% 370M 2011-09-30
Robeco Financial Institutions Bonds IH 1% 3% 9% 2% 10% 1133M 2015-02-28
Flagship IP Flexible Value B3 2% 8% 5% 5% 10% 368M 2015-02-28
SLI MyFolio Managed Income III Inst Acc 0% 3% 9% 3% 10% 45M 2015-02-28
TCW Relative Value Mid Cap I 7% 3% 7% 3% 10% - 2015-02-28
Generali IS 7/10 Years Euro Bds AY 1% 3% 13% 2% 10% 10M 2015-02-28
Parvest Equity Best Sel AsiaExJp I 2% 18% 46% 15% 10% 503M 2015-02-28
AXA Framlington UK Smlr Coms Z GBP Acc -2% 1% 15% 1% 10% 92M 2014-09-30
HSBC GIF Frontier Markets XCGBP 0% -2% 0% 1% 10% 272M 2015-02-28
BANOR SICAV Greater China LS Eq I USD 5% 6% 0% 0% 10% 50M 2015-02-28
ComStage DJ CHE Titans 30TM Net TR ETF 7% -1% 8% 0% 10% 64M 2015-02-28
SZITIC StarRock VIIII 6% 20% 33% 8% 10% - 2015-02-28
SSP Third Avenue US Equity I EUR 2% 8% -3% 8% 10% - 2012-03-31

All our data is licensed from Morningstar UK Ltd. Important legal information